Terminal Aerodrome Forecast
Issued by NWS Louisville, KY

Home | Current Version | Previous Version | Text Only | Print | Product List | Glossary On
Versions: 1 2 3 4 5 6 7 8 9 10 11 12 13 14 15 16 17 18
878
FTUS43 KLMK 252321
TAFBWG
TAF
KBWG 252321Z 2600/2624 20008KT P6SM FEW070 FEW250
     FM261400 23010KT P6SM BKN040
     FM262100 23008KT P6SM VCSH BKN040=

USA.gov is the U.S. government's official web portal to all federal, state and local government web resources and services.